createdAt,value
2023-05-05T00:00:25.736Z,73.89
2023-05-05T00:02:55.864Z,73.30
2023-05-05T00:05:25.406Z,73.57
2023-05-05T00:07:54.117Z,73.39
2023-05-05T00:10:22.568Z,72.80
2023-05-05T00:12:50.998Z,73.56
2023-05-05T00:15:19.569Z,73.39
2023-05-05T00:17:47.998Z,73.61
2023-05-05T00:20:17.784Z,73.98
2023-05-05T00:22:46.110Z,73.28
2023-05-05T00:25:14.476Z,73.03
2023-05-05T00:27:42.787Z,73.07
2023-05-05T00:30:13.677Z,72.39
2023-05-05T00:32:42.036Z,72.91
2023-05-05T00:35:10.724Z,72.78
2023-05-05T00:37:40.407Z,72.32
2023-05-05T00:40:09.984Z,73.21
2023-05-05T00:42:41.846Z,73.44
2023-05-05T00:45:11.361Z,73.78
2023-05-05T00:47:41.206Z,73.74
2023-05-05T00:50:10.783Z,73.27
2023-05-05T00:52:40.623Z,72.89
2023-05-05T00:55:10.121Z,72.40
2023-05-05T00:57:38.648Z,72.38
2023-05-05T01:00:09.900Z,73.19
2023-05-05T01:02:40.264Z,72.74
2023-05-05T01:05:10.100Z,73.49
2023-05-05T01:07:53.912Z,74.45
2023-05-05T01:10:31.260Z,74.73
2023-05-05T01:13:07.705Z,73.81
2023-05-05T01:15:41.865Z,74.29
2023-05-05T01:18:21.223Z,74.42
2023-05-05T01:20:57.274Z,73.40
2023-05-05T01:23:44.499Z,73.08
2023-05-05T01:26:39.136Z,73.44
2023-05-05T01:29:39.982Z,73.06
2023-05-05T01:32:12.514Z,73.60
2023-05-05T01:34:46.091Z,73.53
2023-05-05T01:37:19.546Z,73.03
2023-05-05T01:39:52.470Z,73.32
2023-05-05T01:42:23.344Z,72.72
2023-05-05T01:44:54.074Z,72.90
2023-05-05T01:47:24.593Z,73.30
2023-05-05T01:49:53.651Z,73.89
2023-05-05T01:52:23.733Z,74.54
2023-05-05T01:54:53.996Z,75.25
2023-05-05T01:57:25.928Z,75.87
2023-05-05T01:59:55.547Z,75.68
2023-05-05T02:02:29.861Z,75.88
2023-05-05T02:04:59.713Z,76.02
2023-05-05T02:07:29.105Z,75.97
2023-05-05T02:09:58.408Z,75.66
2023-05-05T02:12:27.775Z,75.79
2023-05-05T02:15:00.793Z,76.25
2023-05-05T02:17:31.076Z,75.59
2023-05-05T02:20:01.707Z,75.78
2023-05-05T02:22:31.645Z,76.70
2023-05-05T02:25:00.072Z,76.26
2023-05-05T02:27:29.326Z,76.39
2023-05-05T02:30:01.488Z,77.05
2023-05-05T02:32:34.723Z,76.83
2023-05-05T02:35:11.905Z,77.09
2023-05-05T02:37:43.905Z,77.19
2023-05-05T02:40:14.848Z,77.96
2023-05-05T02:42:46.273Z,78.09
2023-05-05T02:45:18.353Z,76.78
2023-05-05T02:47:48.146Z,76.03
2023-05-05T02:50:17.069Z,76.14
2023-05-05T02:52:45.812Z,76.72
2023-05-05T02:55:14.571Z,76.12
2023-05-05T02:57:51.468Z,75.87
2023-05-05T03:00:26.953Z,75.64
2023-05-05T03:03:06.776Z,75.32
2023-05-05T03:05:40.007Z,75.48
2023-05-05T03:08:14.468Z,75.95
2023-05-05T03:10:48.132Z,76.50
2023-05-05T03:13:19.609Z,76.02
2023-05-05T03:15:50.736Z,76.54
2023-05-05T03:18:23.612Z,76.76
2023-05-05T03:20:52.575Z,76.09
2023-05-05T03:23:22.737Z,76.39
2023-05-05T03:25:51.877Z,76.07
2023-05-05T03:28:20.224Z,76.58
2023-05-05T03:30:48.618Z,77.28
2023-05-05T03:33:17.345Z,76.50
2023-05-05T03:35:47.037Z,77.23
2023-05-05T03:38:15.365Z,77.23
2023-05-05T03:40:44.808Z,77.88
2023-05-05T03:43:13.416Z,77.44
2023-05-05T03:45:42.155Z,77.36
2023-05-05T03:48:10.487Z,76.88
2023-05-05T03:50:38.814Z,76.63
2023-05-05T03:53:08.561Z,76.95
2023-05-05T03:55:36.901Z,76.68
2023-05-05T03:58:05.206Z,76.33
2023-05-05T04:00:33.474Z,76.31
2023-05-05T04:03:02.055Z,76.92
2023-05-05T04:05:30.424Z,76.88
2023-05-05T04:07:58.735Z,76.85
2023-05-05T04:10:28.433Z,76.71
2023-05-05T04:12:56.884Z,76.91
2023-05-05T04:15:25.452Z,76.43
2023-05-05T04:17:53.841Z,76.07
2023-05-05T04:20:22.435Z,75.97
2023-05-05T04:22:52.585Z,76.49
2023-05-05T04:25:21.186Z,77.12
2023-05-05T04:27:51.091Z,77.19
2023-05-05T04:30:19.539Z,76.92
2023-05-05T04:32:49.974Z,77.15
2023-05-05T04:35:18.377Z,77.68
2023-05-05T04:37:46.669Z,78.29
2023-05-05T04:40:15.012Z,78.00
2023-05-05T04:42:43.372Z,77.33
2023-05-05T04:45:14.125Z,76.98
2023-05-05T04:47:42.974Z,76.58
2023-05-05T04:50:12.307Z,76.24
2023-05-05T04:52:40.688Z,77.02
2023-05-05T04:55:10.570Z,76.15
2023-05-05T04:57:39.156Z,76.90
2023-05-05T05:00:09.564Z,75.12
2023-05-05T05:02:39.634Z,75.09
2023-05-05T05:05:09.502Z,75.52
2023-05-05T05:07:37.839Z,75.36
2023-05-05T05:10:07.385Z,75.42
2023-05-05T05:12:36.050Z,74.89
2023-05-05T05:15:04.807Z,74.73
2023-05-05T05:17:33.128Z,75.21
2023-05-05T05:20:04.918Z,74.84
2023-05-05T05:22:35.021Z,74.90
2023-05-05T05:25:05.848Z,75.25
2023-05-05T05:27:34.178Z,74.48
2023-05-05T05:30:03.128Z,73.66
2023-05-05T05:32:31.566Z,73.43
2023-05-05T05:35:00.092Z,73.30
2023-05-05T05:37:31.525Z,72.79
2023-05-05T05:39:59.898Z,73.08
2023-05-05T05:42:28.384Z,72.89
2023-05-05T05:44:58.422Z,72.12
2023-05-05T05:47:26.899Z,71.84
2023-05-05T05:49:55.571Z,71.82
2023-05-05T05:52:24.005Z,70.89
2023-05-05T05:54:53.700Z,70.54
2023-05-05T05:57:24.511Z,69.44
2023-05-05T05:59:53.856Z,69.40
2023-05-05T06:02:22.182Z,68.15
2023-05-05T06:04:50.889Z,67.64
2023-05-05T06:07:19.431Z,67.67
2023-05-05T06:09:48.125Z,67.49
2023-05-05T06:12:17.794Z,65.43
2023-05-05T06:14:46.241Z,64.22
2023-05-05T06:17:14.584Z,63.21
2023-05-05T06:19:43.370Z,63.43
2023-05-05T06:22:11.701Z,63.54
2023-05-05T06:24:40.026Z,63.24
2023-05-05T06:27:08.628Z,62.08
2023-05-05T06:29:38.324Z,61.95
2023-05-05T06:32:08.408Z,61.96
2023-05-05T06:34:36.768Z,62.17
2023-05-05T06:37:05.058Z,62.01
2023-05-05T06:39:33.424Z,62.67
2023-05-05T06:42:02.168Z,62.98
2023-05-05T06:44:31.068Z,61.79
2023-05-05T06:47:00.908Z,60.72
2023-05-05T06:49:29.410Z,60.59
2023-05-05T06:51:57.825Z,60.08
2023-05-05T06:54:26.115Z,60.15
2023-05-05T06:56:54.511Z,59.59
2023-05-05T06:59:22.812Z,59.78
2023-05-05T07:01:51.766Z,59.36
2023-05-05T07:04:22.344Z,59.63
2023-05-05T07:06:50.692Z,58.80
2023-05-05T07:09:20.287Z,58.62
2023-05-05T07:11:48.712Z,58.63
2023-05-05T07:14:17.114Z,59.60
2023-05-05T07:16:46.392Z,59.21
2023-05-05T07:19:14.722Z,59.35
2023-05-05T07:21:44.421Z,59.98
2023-05-05T07:24:12.749Z,60.26
2023-05-05T07:26:41.304Z,59.34
2023-05-05T07:29:09.686Z,58.50
2023-05-05T07:31:38.118Z,58.82
2023-05-05T07:34:06.461Z,58.62
2023-05-05T07:36:34.800Z,58.37
2023-05-05T07:39:05.135Z,58.56
2023-05-05T07:41:34.042Z,59.19
2023-05-05T07:44:02.404Z,58.76
2023-05-05T07:46:30.768Z,58.79
2023-05-05T07:48:59.132Z,58.96
2023-05-05T07:51:27.735Z,58.68
2023-05-05T07:53:56.681Z,58.21
2023-05-05T07:56:26.523Z,57.49
2023-05-05T07:58:54.855Z,57.46
2023-05-05T08:01:23.309Z,56.97
2023-05-05T08:03:51.896Z,57.55
2023-05-05T08:06:22.075Z,56.89
2023-05-05T08:08:50.807Z,57.11
2023-05-05T08:11:19.114Z,56.56
2023-05-05T08:13:49.448Z,57.04
2023-05-05T08:16:18.002Z,56.85
2023-05-05T08:18:46.363Z,56.89
2023-05-05T08:21:14.704Z,56.04
2023-05-05T08:23:43.053Z,55.36
2023-05-05T08:26:11.417Z,54.87
2023-05-05T08:28:39.958Z,54.43
2023-05-05T08:31:10.113Z,54.46
2023-05-05T08:33:38.441Z,54.46
2023-05-05T08:36:08.974Z,55.30
2023-05-05T08:38:37.391Z,54.89
2023-05-05T08:41:07.467Z,54.27
2023-05-05T08:43:36.613Z,54.19
2023-05-05T08:46:06.129Z,54.28
2023-05-05T08:48:41.390Z,54.74
2023-05-05T08:51:11.137Z,54.12
2023-05-05T08:53:48.185Z,52.92
2023-05-05T08:56:16.718Z,53.19
2023-05-05T08:58:48.276Z,52.57
2023-05-05T09:01:17.882Z,52.37
2023-05-05T09:03:48.119Z,53.18
2023-05-05T09:06:16.812Z,53.26
2023-05-05T09:08:45.532Z,52.36
2023-05-05T09:11:14.089Z,51.58
2023-05-05T09:13:43.555Z,52.23
2023-05-05T09:16:11.947Z,52.31
2023-05-05T09:18:42.573Z,51.63
2023-05-05T09:21:22.621Z,50.34
2023-05-05T09:24:10.839Z,50.32
2023-05-05T09:26:43.687Z,49.05
2023-05-05T09:29:19.438Z,50.06
2023-05-05T09:32:05.419Z,49.95
2023-05-05T09:34:35.468Z,49.71
2023-05-05T09:37:06.215Z,50.32
2023-05-05T09:39:34.737Z,49.75
2023-05-05T09:42:03.681Z,49.18
2023-05-05T09:44:36.407Z,48.71
2023-05-05T09:47:09.361Z,48.70
2023-05-05T09:49:43.425Z,48.30
2023-05-05T09:52:17.701Z,48.23
2023-05-05T09:54:46.410Z,48.03
2023-05-05T09:57:27.418Z,47.55
2023-05-05T09:59:57.490Z,47.45
2023-05-05T10:02:34.509Z,47.61
2023-05-05T10:05:07.592Z,47.43
2023-05-05T10:07:40.300Z,47.13
2023-05-05T10:10:10.948Z,47.91
2023-05-05T10:12:40.176Z,47.84
2023-05-05T10:15:10.001Z,46.12
2023-05-05T10:17:57.907Z,45.74
2023-05-05T10:20:33.046Z,46.24
2023-05-05T10:23:06.598Z,46.44
2023-05-05T10:25:40.210Z,46.24
2023-05-05T10:28:12.920Z,45.52
2023-05-05T10:30:47.039Z,44.09
2023-05-05T10:33:30.842Z,43.55
2023-05-05T10:36:03.069Z,42.84
2023-05-05T10:38:33.155Z,42.21
2023-05-05T10:41:02.552Z,41.28
2023-05-05T10:43:32.146Z,40.15
2023-05-05T10:46:01.465Z,38.38
2023-05-05T10:48:36.837Z,38.94
2023-05-05T10:51:27.461Z,38.51
2023-05-05T10:54:13.110Z,38.85
2023-05-05T10:56:43.235Z,36.89
2023-05-05T10:59:45.392Z,36.72
2023-05-05T11:02:28.020Z,36.39
2023-05-05T11:05:17.491Z,36.87
2023-05-05T11:07:46.711Z,37.33
2023-05-05T11:10:17.433Z,36.42
2023-05-05T11:13:20.668Z,36.03
2023-05-05T11:15:50.664Z,36.92
2023-05-05T11:18:39.319Z,37.45
2023-05-05T11:21:18.329Z,37.33
2023-05-05T11:23:51.298Z,35.56
2023-05-05T11:26:51.557Z,36.06
2023-05-05T11:29:20.018Z,37.26
2023-05-05T11:32:12.113Z,37.06
2023-05-05T11:34:49.898Z,37.66
2023-05-05T11:37:18.400Z,37.96
2023-05-05T11:40:02.404Z,38.26
2023-05-05T11:42:32.582Z,38.87
2023-05-05T11:45:01.193Z,38.67
2023-05-05T11:47:32.012Z,39.28
2023-05-05T11:50:16.390Z,38.93
2023-05-05T11:52:44.673Z,38.20
2023-05-05T11:55:13.166Z,38.43
2023-05-05T11:57:43.190Z,37.07
2023-05-05T12:00:12.740Z,37.73
2023-05-05T12:02:41.520Z,37.28
2023-05-05T12:05:10.481Z,36.83
2023-05-05T12:07:39.005Z,35.58
2023-05-05T12:10:08.594Z,36.29
2023-05-05T12:12:38.612Z,35.78
2023-05-05T12:15:10.412Z,34.72
2023-05-05T12:17:45.950Z,34.98
2023-05-05T12:20:14.950Z,35.36
2023-05-05T12:22:44.727Z,34.05
2023-05-05T12:25:13.213Z,34.41
2023-05-05T12:27:42.605Z,34.44
2023-05-05T12:30:18.416Z,33.94
2023-05-05T12:32:47.248Z,33.32
2023-05-05T12:35:16.963Z,33.94
2023-05-05T12:37:45.651Z,33.73
2023-05-05T12:40:45.885Z,33.60
2023-05-05T12:43:28.791Z,33.89
2023-05-05T12:46:09.198Z,32.59
2023-05-05T12:48:39.132Z,32.22
2023-05-05T12:51:28.380Z,31.67
2023-05-05T12:54:04.934Z,31.78
2023-05-05T12:56:35.252Z,31.71
2023-05-05T12:59:04.979Z,31.40
2023-05-05T13:01:35.669Z,32.36
2023-05-05T13:04:14.387Z,31.72
2023-05-05T13:06:45.038Z,31.91
2023-05-05T13:09:24.263Z,31.78
2023-05-05T13:11:52.803Z,31.79
2023-05-05T13:14:21.835Z,32.40
2023-05-05T13:16:51.600Z,31.72
2023-05-05T13:19:19.905Z,31.89
2023-05-05T13:21:48.347Z,32.24
2023-05-05T13:24:23.670Z,32.01
2023-05-05T13:26:57.153Z,31.45
2023-05-05T13:29:29.040Z,31.65
2023-05-05T13:32:01.339Z,31.23
2023-05-05T13:34:29.890Z,30.73
2023-05-05T13:36:58.272Z,30.51
2023-05-05T13:39:26.587Z,30.22
2023-05-05T13:41:54.931Z,30.33
2023-05-05T13:44:23.298Z,30.46
2023-05-05T13:46:51.782Z,31.11
2023-05-05T13:49:21.694Z,30.75
2023-05-05T13:51:50.119Z,29.90
2023-05-05T13:54:18.843Z,30.17
2023-05-05T13:56:47.580Z,30.47
2023-05-05T13:59:15.868Z,30.24
2023-05-05T14:01:44.216Z,31.08
2023-05-05T14:04:12.793Z,31.78
2023-05-05T14:06:42.531Z,33.21
2023-05-05T14:09:11.010Z,33.00
2023-05-05T14:11:39.299Z,33.03
2023-05-05T14:14:07.733Z,33.09
2023-05-05T14:16:36.093Z,33.53
2023-05-05T14:19:04.576Z,32.90
2023-05-05T14:21:33.554Z,33.17
2023-05-05T14:24:03.319Z,32.65
2023-05-05T14:26:31.696Z,32.15
2023-05-05T14:29:00.123Z,31.64
2023-05-05T14:31:28.687Z,31.45
2023-05-05T14:33:57.015Z,31.66
2023-05-05T14:36:25.339Z,31.69
2023-05-05T14:38:53.937Z,31.02
2023-05-05T14:41:23.720Z,31.39
2023-05-05T14:43:52.061Z,32.58
2023-05-05T14:46:20.502Z,31.95
2023-05-05T14:48:48.944Z,32.45
2023-05-05T14:51:17.414Z,31.68
2023-05-05T14:53:45.783Z,33.37
2023-05-05T14:56:14.116Z,33.10
2023-05-05T14:58:43.991Z,33.81
2023-05-05T15:01:12.384Z,34.26
2023-05-05T15:03:41.192Z,34.20
2023-05-05T15:06:10.531Z,35.55
2023-05-05T15:08:39.019Z,34.88
2023-05-05T15:11:07.509Z,34.64
2023-05-05T15:13:38.546Z,34.50
2023-05-05T15:16:09.204Z,34.50
2023-05-05T15:18:37.613Z,34.99
2023-05-05T15:21:06.213Z,34.88
2023-05-05T15:23:34.735Z,35.70
2023-05-05T15:26:03.861Z,35.15
2023-05-05T15:28:32.298Z,35.00
2023-05-05T15:31:02.912Z,34.76
2023-05-05T15:33:33.525Z,35.41
2023-05-05T15:36:02.151Z,35.44
2023-05-05T15:38:31.253Z,34.38
2023-05-05T15:40:59.791Z,35.44
2023-05-05T15:43:28.403Z,35.84
2023-05-05T15:45:56.743Z,35.92
2023-05-05T15:48:25.036Z,35.47
2023-05-05T15:50:54.803Z,35.50
2023-05-05T15:53:23.214Z,36.26
2023-05-05T15:55:51.582Z,36.20
2023-05-05T15:58:19.922Z,36.08
2023-05-05T16:00:48.384Z,36.85
2023-05-05T16:03:17.868Z,36.85
2023-05-05T16:05:47.136Z,37.55
2023-05-05T16:08:16.857Z,37.12
2023-05-05T16:10:45.164Z,37.49
2023-05-05T16:13:14.028Z,38.12
2023-05-05T16:15:42.470Z,38.18
2023-05-05T16:18:10.792Z,37.83
2023-05-05T16:20:39.160Z,38.29
2023-05-05T16:23:08.000Z,39.32
2023-05-05T16:25:37.771Z,38.91
2023-05-05T16:28:06.581Z,39.90
2023-05-05T16:30:35.348Z,40.44
2023-05-05T16:33:03.926Z,40.32
2023-05-05T16:35:32.330Z,40.58
2023-05-05T16:38:00.730Z,41.04
2023-05-05T16:40:29.345Z,40.07
2023-05-05T16:42:59.068Z,40.32
2023-05-05T16:45:27.363Z,40.13
2023-05-05T16:47:56.301Z,40.78
2023-05-05T16:50:24.896Z,41.04
2023-05-05T16:52:54.436Z,41.49
2023-05-05T16:55:22.891Z,42.16
2023-05-05T16:57:51.621Z,42.90
2023-05-05T17:00:21.836Z,42.31
2023-05-05T17:02:50.401Z,42.98
2023-05-05T17:05:18.965Z,42.87
2023-05-05T17:07:48.237Z,43.41
2023-05-05T17:10:16.727Z,43.75
2023-05-05T17:12:45.431Z,44.08
2023-05-05T17:15:13.932Z,44.01
2023-05-05T17:17:43.692Z,44.47
2023-05-05T17:20:13.142Z,44.14
2023-05-05T17:22:41.577Z,44.08
2023-05-05T17:25:11.249Z,44.68
2023-05-05T17:27:39.754Z,44.30
2023-05-05T17:30:09.276Z,44.19
2023-05-05T17:32:38.159Z,43.94
2023-05-05T17:35:08.687Z,44.09
2023-05-05T17:37:37.709Z,44.37
2023-05-05T17:40:07.553Z,44.69
2023-05-05T17:42:35.953Z,45.78
2023-05-05T17:45:04.752Z,46.04
2023-05-05T17:47:33.174Z,46.21
2023-05-05T17:50:01.878Z,46.97
2023-05-05T17:52:31.700Z,47.63
2023-05-05T17:55:00.029Z,48.47
2023-05-05T17:57:28.718Z,48.08
2023-05-05T17:59:57.394Z,48.50
2023-05-05T18:02:25.996Z,48.96
2023-05-05T18:04:54.472Z,49.78
2023-05-05T18:07:22.817Z,49.92
2023-05-05T18:09:52.656Z,50.99
2023-05-05T18:12:21.425Z,50.90
2023-05-05T18:14:49.784Z,51.92
2023-05-05T18:17:18.168Z,51.99
2023-05-05T18:19:49.082Z,51.52
2023-05-05T18:22:18.491Z,53.10
2023-05-05T18:24:47.700Z,53.00
2023-05-05T18:27:17.531Z,53.01
2023-05-05T18:29:45.838Z,53.97
2023-05-05T18:32:14.296Z,53.64
2023-05-05T18:34:42.636Z,54.21
2023-05-05T18:37:11.138Z,54.66
2023-05-05T18:39:39.698Z,55.21
2023-05-05T18:42:08.834Z,55.27
2023-05-05T18:44:38.718Z,55.13
2023-05-05T18:47:07.521Z,55.97
2023-05-05T18:49:35.903Z,55.54
2023-05-05T18:52:04.356Z,56.10
2023-05-05T18:54:32.691Z,56.03
2023-05-05T18:57:01.488Z,55.91
2023-05-05T18:59:29.893Z,55.66
2023-05-05T19:02:00.488Z,55.70
2023-05-05T19:04:31.661Z,56.78
2023-05-05T19:07:00.719Z,57.03
2023-05-05T19:09:29.300Z,56.74
2023-05-05T19:11:57.675Z,56.37
2023-05-05T19:14:26.122Z,56.05
2023-05-05T19:16:55.750Z,55.92
2023-05-05T19:19:26.050Z,56.22
2023-05-05T19:21:54.802Z,56.05
2023-05-05T19:24:23.181Z,57.14
2023-05-05T19:26:51.732Z,57.54
2023-05-05T19:29:20.094Z,57.63
2023-05-05T19:31:48.785Z,57.10
2023-05-05T19:34:17.120Z,56.82
2023-05-05T19:36:46.787Z,57.34
2023-05-05T19:39:15.875Z,57.51
2023-05-05T19:41:44.321Z,59.62
2023-05-05T19:44:12.629Z,61.60
2023-05-05T19:46:41.318Z,60.70
2023-05-05T19:49:09.736Z,60.50
2023-05-05T19:51:38.396Z,60.19
2023-05-05T19:54:08.295Z,60.99
2023-05-05T19:56:36.560Z,61.51
2023-05-05T19:59:06.359Z,60.37
2023-05-05T20:01:36.100Z,60.00
2023-05-05T20:04:04.867Z,59.69
2023-05-05T20:06:33.727Z,60.28
2023-05-05T20:09:02.185Z,59.68
2023-05-05T20:11:32.361Z,59.05
2023-05-05T20:14:01.012Z,59.42
2023-05-05T20:16:29.523Z,59.45
2023-05-05T20:18:58.053Z,59.41
2023-05-05T20:21:26.717Z,59.23
2023-05-05T20:23:55.454Z,58.83
2023-05-05T20:26:24.478Z,58.65
2023-05-05T20:28:54.279Z,59.45
2023-05-05T20:31:22.899Z,59.73
2023-05-05T20:33:51.287Z,60.04
2023-05-05T20:36:19.861Z,60.64
2023-05-05T20:38:48.238Z,60.65
2023-05-05T20:41:16.587Z,60.86
2023-05-05T20:43:45.028Z,61.17
2023-05-05T20:46:14.810Z,60.07
2023-05-05T20:48:43.388Z,60.41
2023-05-05T20:51:11.703Z,60.33
2023-05-05T20:53:40.035Z,60.96
2023-05-05T20:56:09.217Z,60.45
2023-05-05T20:58:37.806Z,60.48
2023-05-05T21:01:06.276Z,59.97
2023-05-05T21:03:37.249Z,60.16
2023-05-05T21:06:06.078Z,61.13
2023-05-05T21:08:34.441Z,60.67
2023-05-05T21:11:02.846Z,61.33
2023-05-05T21:13:32.099Z,61.22
2023-05-05T21:16:00.403Z,61.65
2023-05-05T21:18:28.771Z,61.25
2023-05-05T21:20:58.833Z,62.00
2023-05-05T21:23:27.134Z,61.76
2023-05-05T21:25:55.474Z,61.36
2023-05-05T21:28:23.978Z,61.91
2023-05-05T21:33:23.758Z,62.18
2023-05-05T21:35:52.066Z,62.11
2023-05-05T21:38:21.738Z,62.43
2023-05-05T21:40:50.346Z,62.63
2023-05-05T21:43:18.714Z,63.17
2023-05-05T21:45:47.013Z,62.17
2023-05-05T21:48:15.343Z,62.01
2023-05-05T21:50:43.743Z,61.65
2023-05-05T21:53:12.130Z,61.73
2023-05-05T21:55:41.815Z,60.86
2023-05-05T21:58:10.444Z,61.12
2023-05-05T22:00:38.862Z,61.47
2023-05-05T22:03:07.375Z,61.42
2023-05-05T22:05:35.881Z,62.20
2023-05-05T22:08:04.488Z,62.05
2023-05-05T22:10:32.835Z,62.14
2023-05-05T22:13:02.661Z,63.92
2023-05-05T22:15:38.899Z,65.55
2023-05-05T22:18:14.055Z,66.36
2023-05-05T22:20:44.132Z,67.79
2023-05-05T22:23:14.008Z,66.60
2023-05-05T22:25:42.425Z,67.40
2023-05-05T22:28:12.324Z,70.42
2023-05-05T22:30:40.738Z,72.79
2023-05-05T22:33:09.463Z,70.23
2023-05-05T22:35:38.223Z,68.00
2023-05-05T22:38:07.061Z,68.93
2023-05-05T22:40:35.491Z,70.84
2023-05-05T22:43:03.789Z,68.88
2023-05-05T22:45:34.146Z,70.34
2023-05-05T22:48:02.852Z,73.03
2023-05-05T22:50:31.242Z,72.40
2023-05-05T22:52:59.634Z,71.78
2023-05-05T22:55:28.049Z,75.29
2023-05-05T22:57:56.408Z,75.45
2023-05-05T23:00:25.119Z,75.19
2023-05-05T23:02:55.038Z,79.20
2023-05-05T23:05:23.367Z,77.15
2023-05-05T23:07:51.729Z,79.30
2023-05-05T23:10:20.055Z,77.42
2023-05-05T23:12:48.411Z,78.05
2023-05-05T23:15:17.154Z,80.05
2023-05-05T23:17:45.515Z,80.52
2023-05-05T23:20:15.192Z,84.54
2023-05-05T23:22:43.526Z,85.54
2023-05-05T23:25:12.405Z,85.04
2023-05-05T23:27:41.380Z,84.45
2023-05-05T23:30:10.434Z,85.00
2023-05-05T23:32:38.895Z,86.36
2023-05-05T23:35:08.388Z,87.76
2023-05-05T23:37:38.240Z,89.81
2023-05-05T23:40:07.853Z,93.21
2023-05-05T23:42:36.150Z,93.56
2023-05-05T23:45:04.827Z,96.94
2023-05-05T23:47:33.244Z,97.96
2023-05-05T23:50:01.745Z,100.00
2023-05-05T23:52:30.089Z,100.00
2023-05-05T23:54:59.760Z,100.00
2023-05-05T23:57:28.021Z,100.00
2023-05-05T23:59:56.380Z,100.00
